Terminal Aerodrome Forecast
Issued by NWS

Current Version | Previous Version | Text Only | Print | Product List | Glossary Off
Versions: 1 2 3 4 5 6 7 8 9 10 11 12 13 14 15 16 17 18 19

000
FTUS41 KPBZ 301500 AAA
TAFMGW
TAF AMD
KMGW 301500Z 3015/3112 32012G24KT P6SM -SHSN BKN025
      TEMPO 3015/3018 1SM -SHSN BKN012
     FM302100 30008KT P6SM BKN020
     FM310600 28005KT P6SM SCT015=

USA.gov is the U.S. government's official web portal to all federal, state and local government web resources and services.